WetterOnline ( https://www.wetteronline.de )

Wetter aktuell Kempten

Aktuelles Wetter: Kempten (705m)

6-stündlich | Neueste Meldungen
Ortszeit Temperatur Wetter
Mi, 29.05. 14:00 19.2° C bedeckt
Mi, 29.05. 8:00 11.2° C wolkig
Mi, 29.05. 2:00 7.6° C wolkig
Di, 28.05. 20:00 15.2° C wolkenlos
Di, 28.05. 14:00 13.8° C bedeckt
Di, 28.05. 8:00 10.5° C leichter Regen
Di, 28.05. 2:00 11.8° C leichter Regen
Mo, 27.05. 20:00 13.1° C Regen
Ortszeit Temperatur Wetter
Mi, 29.05. 16:10 18.9° C bedeckt
Mi, 29.05. 16:00 19.2° C bewölkt
Mi, 29.05. 15:50 19.2° C bewölkt
Mi, 29.05. 15:40 19.6° C bewölkt
Mi, 29.05. 15:30 20.1° C bedeckt
Mi, 29.05. 15:20 20.1° C bedeckt
Mi, 29.05. 15:00 19.3° C bedeckt
Mi, 29.05. 14:30 18.6° C bewölkt
Mi, 29.05. 14:00 19.2° C bedeckt
Mi, 29.05. 13:30 19.5° C bewölkt
Ortszeit Relative Feuchte Sichtweite
Mi, 29.05. 14:00 40% >70 km
Mi, 29.05. 8:00 76% 65 km
Mi, 29.05. 2:00 92% 50 km
Di, 28.05. 20:00 55% >70 km
Di, 28.05. 14:00 67% 60 km
Di, 28.05. 8:00 93% 6 km
Di, 28.05. 2:00 90% 26 km
Mo, 27.05. 20:00 96% 2.0 km
Ortszeit Relative Feuchte Sichtweite
Mi, 29.05. 16:10 50% -
Mi, 29.05. 16:00 49% 55 km
Mi, 29.05. 15:50 49% -
Mi, 29.05. 15:40 46% -
Mi, 29.05. 15:30 45% 55 km
Mi, 29.05. 15:20 45% -
Mi, 29.05. 15:00 44% >70 km
Mi, 29.05. 14:30 42% >70 km
Mi, 29.05. 14:00 40% >70 km
Mi, 29.05. 13:30 44% 55 km
Ortszeit Niederschlagsmenge Niederschlagsart
Mi, 29.05. 14:00 0.0 l/m2 in 6 Std. -
Mi, 29.05. 8:00 0.0 l/m2 in 12 Std. -
Mi, 29.05. 2:00 0.0 l/m2 in 6 Std. -
Di, 28.05. 20:00 6 l/m2 in 12 Std. -
Di, 28.05. 14:00 6 l/m2 in 6 Std. Regen
Di, 28.05. 8:00 14 l/m2 in 12 Std. Regen
Di, 28.05. 2:00 8 l/m2 in 6 Std. Regen
Mo, 27.05. 20:00 4 l/m2 in 12 Std. Regen
Ortszeit Niederschlagsmenge Niederschlagsart
Mi, 29.05. 16:10 keine Meldung -
Mi, 29.05. 16:00 0.0 l/m2 in 1 Std. -
Mi, 29.05. 15:50 keine Meldung -
Mi, 29.05. 15:40 keine Meldung -
Mi, 29.05. 15:30 0.0 l/m2 in 30 Min -
Mi, 29.05. 15:20 keine Meldung -
Mi, 29.05. 15:00 0.0 l/m2 in 1 Std. -
Mi, 29.05. 14:30 0.0 l/m2 in 30 Min -
Mi, 29.05. 14:00 0.0 l/m2 in 1 Std. -
Mi, 29.05. 13:30 0.0 l/m2 in 30 Min -
Ortszeit Stärke Spitze Richtung
km/h Bft. km/h Grad Sektor
Mi, 29.05. 14:00 9 2 22 290° W
Mi, 29.05. 8:00 7 2 18 140° SO
Mi, 29.05. 2:00 9 2 17 110° O
Di, 28.05. 20:00 7 2 29 180° S
Di, 28.05. 14:00 7 2 22 220° SW
Di, 28.05. 8:00 6 1 28 200° S
Di, 28.05. 2:00 6 1 19 110° O
Mo, 27.05. 20:00 4 1 22 280° W
Ortszeit Stärke Spitze Richtung
km/h Bft. km/h Grad Sektor
Mi, 29.05. 16:10 11 2 - 260° W
Mi, 29.05. 16:00 7 2 25 280° W
Mi, 29.05. 15:50 7 2 - 280° W
Mi, 29.05. 15:40 7 2 - 290° W
Mi, 29.05. 15:30 7 2 18 240° SW
Mi, 29.05. 15:20 7 2 - 240° SW
Mi, 29.05. 15:00 4 1 14 270° W
Mi, 29.05. 14:30 4 1 14 300° NW
Mi, 29.05. 14:00 9 2 22 290° W
Mi, 29.05. 13:30 9 2 22 310° NW
Ortszeit Untergrenze Bedeckung Gattung
total tief tief mittel hoch
Mi, 29.05. 14:00 3000 m 8/8 8/8 - - -
Mi, 29.05. 8:00 4800 m 8/8 8/8 - - -
Mi, 29.05. 2:00 7200 m 8/8 0/8 - - -
Di, 28.05. 20:00 - 0/8 0/8 - - -
Di, 28.05. 14:00 990 m 8/8 8/8 - - -
Di, 28.05. 8:00 180 m 7/8 7/8 - - -
Di, 28.05. 2:00 480 m 8/8 8/8 - - -
Mo, 27.05. 20:00 720 m 7/8 7/8 - - -
Ortszeit Bedeckungsgrad in Achtel und Wolkenuntergrenze
Mi, 29.05. 16:10 8
Mi, 29.05. 16:00 3(1500m) 7(2100m) 7(2700m)
Mi, 29.05. 15:50 3(1500m) 7(2100m) 7(2700m)
Mi, 29.05. 15:40 7
Mi, 29.05. 15:30 7(2100m) 8(2400m)
Mi, 29.05. 15:20 7(2100m) 8(2400m)
Mi, 29.05. 15:00 7(2100m) 8(2400m)
Mi, 29.05. 14:30 7(2100m)
Mi, 29.05. 14:00 8(3000m)
Mi, 29.05. 13:30 4(2100m) 7(2400m) 8(3000m)
Ortszeit Luftdruck NN (hPa) Tendenz (hPa in 3 Std.)
Mi, 29.05. 14:00 1013 - 1,3
Mi, 29.05. 8:00 1018 - 0,7
Mi, 29.05. 2:00 1021 - 0,8
Di, 28.05. 20:00 1019 - 0,5
Di, 28.05. 14:00 1021 - 0,7
Di, 28.05. 8:00 1021 + 0,9
Di, 28.05. 2:00 1019 + 0,3
Mo, 27.05. 20:00 1017 + 1,6
Ortszeit Luftdruck NN (hPa) Tendenz (hPa in 3 Std.)
Mi, 29.05. 16:10 1012 keine Meldung
Mi, 29.05. 16:00 1012 - 0,9
Mi, 29.05. 15:50 1012 keine Meldung
Mi, 29.05. 15:40 1012 keine Meldung
Mi, 29.05. 15:30 1012 - 1,1
Mi, 29.05. 15:20 1012 keine Meldung
Mi, 29.05. 15:00 1012 - 1,0
Mi, 29.05. 14:30 1013 - 0,9
Mi, 29.05. 14:00 1013 - 1,3
Mi, 29.05. 13:30 1013 - 1,3
Ortszeit Schneehöhe (cm)
Mi, 29.05. 14:00 0
Mi, 29.05. 8:00 0
Mi, 29.05. 2:00 0
Di, 28.05. 20:00 0
Di, 28.05. 14:00 0
Di, 28.05. 8:00 0
Di, 28.05. 2:00 0
Mo, 27.05. 20:00 0
Ortszeit Schneehöhe (cm)
Mi, 29.05. 16:10 -
Mi, 29.05. 16:00 0
Mi, 29.05. 15:50 0
Mi, 29.05. 15:40 -
Mi, 29.05. 15:30 0
Mi, 29.05. 15:20 0
Mi, 29.05. 15:00 0
Mi, 29.05. 14:30 0
Mi, 29.05. 14:00 0
Mi, 29.05. 13:30 0
Link zu dieser Seite / Seite empfehlen

Das Wetter in ...